Isola, Mississippi
Current Conditions -  °F | °C
As of 5:53 PM on Thursday 27 Nov 2014 (Local Time) from KGLH Reporting Station
Clear Clear  
Wind Chill: 37°   Ceiling: Unl
Heat Index: 40°   Visibility: 8mi
Dew Point: 32°   Wind: 5mph
Humidity: 73%   Direction: 90°E
Pressure: 30.47"   Gusts: NA
Location:  33.26°N, 90.59°W
Report Text: KGLH 272353Z AUTO 09004KT 8SM CLR 04/00 A3047 RMK AO2 SLP328 T00440000 10089 20044 58005
Loading
Personal Weather Stations






























Interactive Weather Map New forecast layout! Learn more

10-Day Weather Forecast

Advertisements
Track Severe Weather on mobile